Time;durP1;ratioP1;P1;durP2;ratioP2;P2;SDS_P1;SDS_P2;PMS_P1;PMS_P2;Temp;Humidity;BMP_temperature;BMP_pressure;BME280_temperature;BME280_humidity;BME280_pressure;Samples;Min_cycle;Max_cycle;Signal;HPM_P1;HPM_P2
2022/12/19 00:02:10;;;;;;;;;;;;;;;13.92;52.45;102199.91;2327325;76;51554;-78
2022/12/19 00:05:12;;;;;;;;;;;;;;;13.92;52.41;102199.04;2270705;76;49549;-79
2022/12/19 00:08:15;;;;;;;;;;;;;;;13.91;52.36;102194.69;2295819;76;50656;-79
2022/12/19 00:11:17;;;;;;;;;;;;;;;13.90;52.48;102179.22;2327340;76;52654;-79
2022/12/19 00:14:19;;;;;;;;;;;;;;;13.93;52.35;102174.14;2343754;75;50711;-78
2022/12/19 00:17:20;;;;;;;;;;;;;;;13.89;52.36;102163.35;2298506;75;53515;-79
2022/12/19 00:20:22;;;;;;;;;;;;;;;13.88;52.36;102160.34;2296060;76;50727;-78
2022/12/19 00:23:23;;;;;;;;;;;;;;;13.88;52.34;102151.87;2296056;76;50108;-79
2022/12/19 00:26:26;;;;;;;;;;;;;;;13.90;52.31;102155.76;2327287;76;50234;-79
2022/12/19 00:29:27;;;;;;;;;;;;;;;13.88;52.26;102151.02;2256831;77;51044;-78
2022/12/19 00:32:29;;;;;;;;;;;;;;;13.87;52.34;102154.17;2268196;76;50958;-78
2022/12/19 00:35:30;;;;;;;;;;;;;;;13.85;52.35;102158.76;2335562;76;50433;-78
2022/12/19 00:38:32;;;;;;;;;;;;;;;13.86;52.33;102159.59;2345919;74;50791;-79
2022/12/19 00:41:34;;;;;;;;;;;;;;;13.86;52.33;102157.78;2283058;76;51697;-77
2022/12/19 00:44:35;;;;;;;;;;;;;;;13.85;52.32;102148.60;2326728;76;50488;-78
2022/12/19 00:47:37;;;;;;;;;;;;;;;13.84;52.30;102154.38;2294614;76;50385;-77
2022/12/19 00:50:38;;;;;;;;;;;;;;;13.85;52.38;102148.11;2295255;76;50756;-77
2022/12/19 00:53:41;;;;;;;;;;;;;;;13.83;52.28;102166.00;2256117;77;52680;-78
2022/12/19 00:56:42;;;;;;;;;;;;;;;13.84;52.31;102166.84;2287741;77;50338;-77
2022/12/19 00:59:44;;;;;;;;;;;;;;;13.84;52.40;102146.39;2256189;77;50310;-76
2022/12/19 01:02:46;;;;;;;;;;;;;;;13.83;52.33;102134.56;2289001;76;50708;-77
2022/12/19 01:05:47;;;;;;;;;;;;;;;13.83;52.20;102124.76;2294768;76;52599;-77
2022/12/19 01:08:49;;;;;;;;;;;;;;;13.82;52.31;102131.05;2294925;76;50665;-77
2022/12/19 01:15:10;;;;;;;;;;;;;;;13.80;52.33;102112.18;2327133;76;23283;-77
2022/12/19 01:18:11;;;;;;;;;;;;;;;13.79;52.32;102113.12;2294959;76;52176;-76
2022/12/19 01:21:13;;;;;;;;;;;;;;;13.78;52.32;102108.30;2327768;76;50677;-77
2022/12/19 01:24:14;;;;;;;;;;;;;;;13.77;52.25;102091.11;2296031;76;50704;-77
2022/12/19 01:27:16;;;;;;;;;;;;;;;13.78;52.30;102086.17;2331699;75;50921;-76
2022/12/19 01:30:18;;;;;;;;;;;;;;;13.76;52.24;102084.10;2273831;76;52372;-76
2022/12/19 01:33:24;;;;;;;;;;;;;;;13.78;52.24;102080.36;2293500;75;51487;-76
2022/12/19 01:36:22;;;;;;;;;;;;;;;13.75;52.18;102075.28;2358826;74;22150;-76
2022/12/19 01:39:24;;;;;;;;;;;;;;;13.74;52.17;102065.58;2340315;75;50829;-77
2022/12/19 01:42:26;;;;;;;;;;;;;;;13.76;52.26;102056.17;2316162;75;49666;-77
2022/12/19 01:45:29;;;;;;;;;;;;;;;13.73;52.22;102038.62;2288041;77;50645;-76
2022/12/19 01:48:31;;;;;;;;;;;;;;;13.76;52.21;102024.25;2312346;75;51548;-77
2022/12/19 01:51:34;;;;;;;;;;;;;;;13.73;52.17;102021.34;2330545;76;50814;-77
2022/12/19 01:54:36;;;;;;;;;;;;;;;13.73;52.19;102025.33;2300504;76;51085;-77
2022/12/19 01:57:38;;;;;;;;;;;;;;;13.72;52.16;102019.17;2327273;75;51620;-77
2022/12/19 02:00:41;;;;;;;;;;;;;;;13.71;52.21;102011.30;2326436;76;50759;-77
2022/12/19 02:03:43;;;;;;;;;;;;;;;13.71;52.12;102003.31;2325518;76;51552;-76
2022/12/19 02:06:44;;;;;;;;;;;;;;;13.68;52.20;102004.39;2294976;76;52360;-77
2022/12/19 02:09:47;;;;;;;;;;;;;;;13.69;52.17;101996.80;2295145;76;52735;-77
2022/12/19 02:12:49;;;;;;;;;;;;;;;13.68;52.15;101995.09;2326656;76;50507;-77
2022/12/19 02:16:09;;;;;;;;;;;;;;;13.68;52.09;101984.45;2326675;76;50364;-77
2022/12/19 02:19:29;;;;;;;;;;;;;;;13.67;52.06;101988.08;2295069;76;52563;-77
2022/12/19 02:22:38;;;;;;;;;;;;;;;13.67;52.13;101990.75;2326542;76;50665;-77
2022/12/19 02:25:56;;;;;;;;;;;;;;;13.66;52.12;101979.72;2331402;76;51545;-77
2022/12/19 02:28:59;;;;;;;;;;;;;;;13.66;52.09;101986.86;2326586;76;51552;-77
2022/12/19 02:32:05;;;;;;;;;;;;;;;13.66;52.12;101973.07;2294925;76;51773;-77
2022/12/19 02:35:21;;;;;;;;;;;;;;;13.65;52.05;101971.88;2326733;76;52355;-77
2022/12/19 02:38:30;;;;;;;;;;;;;;;13.63;52.10;101971.98;2325154;75;50344;-77
2022/12/19 02:41:42;;;;;;;;;;;;;;;13.65;52.17;101971.88;2326787;76;51668;-77
2022/12/19 02:44:41;;;;;;;;;;;;;;;13.64;52.06;101967.51;2325310;75;22398;-77
2022/12/19 02:47:43;;;;;;;;;;;;;;;13.63;52.17;101960.50;2326074;76;51679;-77
2022/12/19 02:50:45;;;;;;;;;;;;;;;13.62;52.06;101968.97;2326726;75;50373;-77
2022/12/19 02:53:47;;;;;;;;;;;;;;;13.62;52.06;101970.30;2299803;76;52425;-77
2022/12/19 02:57:06;;;;;;;;;;;;;;;13.63;52.01;101979.13;2350261;75;50300;-77
2022/12/19 03:00:09;;;;;;;;;;;;;;;13.60;52.00;101968.23;2315796;76;52818;-77
2022/12/19 03:03:19;;;;;;;;;;;;;;;13.59;52.02;101962.56;2326658;76;50444;-77
2022/12/19 03:06:24;;;;;;;;;;;;;;;13.61;52.06;101965.93;2326580;76;50512;-77
2022/12/19 03:09:28;;;;;;;;;;;;;;;13.59;52.01;101958.58;2326678;75;50720;-77
2022/12/19 03:12:31;;;;;;;;;;;;;;;13.57;52.02;101951.19;2326796;76;50734;-77
2022/12/19 03:15:32;;;;;;;;;;;;;;;13.55;51.98;101949.13;2324795;76;50847;-77
2022/12/19 03:18:34;;;;;;;;;;;;;;;13.59;51.99;101953.72;2326392;75;51594;-78
2022/12/19 03:21:36;;;;;;;;;;;;;;;13.57;51.93;101944.55;2326797;75;51512;-77
2022/12/19 03:24:38;;;;;;;;;;;;;;;13.57;51.99;101947.20;2299678;76;51311;-77
2022/12/19 03:27:40;;;;;;;;;;;;;;;13.56;51.94;101940.66;2287485;75;50770;-77
2022/12/19 03:30:42;;;;;;;;;;;;;;;13.55;51.96;101951.79;2295250;76;50431;-77
2022/12/19 03:33:43;;;;;;;;;;;;;;;13.55;51.99;101957.11;2326850;76;51627;-77
2022/12/19 03:36:46;;;;;;;;;;;;;;;13.54;52.00;101946.12;2294906;75;50849;-77
2022/12/19 03:39:49;;;;;;;;;;;;;;;13.54;51.90;101941.25;2344034;74;51683;-76
2022/12/19 03:43:10;;;;;;;;;;;;;;;13.55;51.89;101924.36;2345427;76;50323;-77
2022/12/19 03:46:16;;;;;;;;;;;;;;;13.52;51.95;101932.58;2332586;76;50508;-75
2022/12/19 03:49:17;;;;;;;;;;;;;;;13.53;51.92;101945.73;2294881;76;51276;-77
2022/12/19 03:52:27;;;;;;;;;;;;;;;13.53;51.92;101947.06;2326577;76;50783;-78
2022/12/19 03:55:32;;;;;;;;;;;;;;;13.50;51.90;101939.33;2326588;76;50696;-77
2022/12/19 03:58:34;;;;;;;;;;;;;;;13.51;51.95;101939.67;2326491;75;50351;-78
2022/12/19 04:01:35;;;;;;;;;;;;;;;13.52;51.95;101940.55;2326738;76;51618;-76
2022/12/19 04:04:38;;;;;;;;;;;;;;;13.51;51.94;101941.01;2326847;76;50722;-75
2022/12/19 04:07:40;;;;;;;;;;;;;;;13.50;51.89;101932.68;2292821;74;49744;-76
2022/12/19 04:10:43;;;;;;;;;;;;;;;13.50;51.94;101935.34;2326731;76;50298;-76
2022/12/19 04:13:46;;;;;;;;;;;;;;;13.49;51.87;101927.85;2257212;77;51755;-76
2022/12/19 04:16:49;;;;;;;;;;;;;;;13.50;51.89;101931.35;2308226;76;50756;-76
2022/12/19 04:19:53;;;;;;;;;;;;;;;13.47;51.96;101920.47;2325469;75;50770;-76
2022/12/19 04:22:58;;;;;;;;;;;;;;;13.47;51.89;101911.65;2324883;76;50733;-76
2022/12/19 04:26:01;;;;;;;;;;;;;;;13.48;51.93;101917.32;2295019;76;51757;-78
2022/12/19 04:29:02;;;;;;;;;;;;;;;13.47;51.89;101913.82;2326348;76;51646;-76
2022/12/19 04:32:04;;;;;;;;;;;;;;;13.47;51.92;101920.95;2326654;75;51420;-76
2022/12/19 04:35:06;;;;;;;;;;;;;;;13.47;51.88;101926.27;2326717;75;51451;-77
2022/12/19 04:38:07;;;;;;;;;;;;;;;13.45;51.88;101936.17;2275480;76;51605;-77
2022/12/19 04:41:09;;;;;;;;;;;;;;;13.45;51.92;101940.16;2341709;76;50295;-77
2022/12/19 04:44:10;;;;;;;;;;;;;;;13.46;51.92;101932.54;2309894;75;50320;-77
2022/12/19 04:47:12;;;;;;;;;;;;;;;13.43;51.85;101929.63;2338146;74;50445;-77
2022/12/19 04:50:14;;;;;;;;;;;;;;;13.45;51.89;101929.53;2269986;76;52110;-77
2022/12/19 04:53:16;;;;;;;;;;;;;;;13.43;51.87;101924.80;2332514;75;51500;-77
2022/12/19 04:56:17;;;;;;;;;;;;;;;13.43;51.84;101916.34;2316528;75;51435;-77
2022/12/19 04:59:19;;;;;;;;;;;;;;;13.43;51.84;101908.85;2296736;76;51568;-77
2022/12/19 05:02:21;;;;;;;;;;;;;;;13.42;51.79;101903.19;2295079;76;51157;-77
2022/12/19 05:05:22;;;;;;;;;;;;;;;13.42;51.80;101894.72;2295205;76;50354;-77
2022/12/19 05:08:24;;;;;;;;;;;;;;;13.43;51.80;101880.94;2294980;76;51479;-76
2022/12/19 05:11:25;;;;;;;;;;;;;;;13.42;51.79;101895.20;2293811;76;50131;-76
2022/12/19 05:14:27;;;;;;;;;;;;;;;13.42;51.82;101889.89;2295088;76;51238;-76
2022/12/19 05:17:28;;;;;;;;;;;;;;;13.42;51.72;101895.20;2293589;75;50837;-77
2022/12/19 05:20:30;;;;;;;;;;;;;;;13.42;51.79;101887.23;2295382;76;50793;-76
2022/12/19 05:23:32;;;;;;;;;;;;;;;13.41;51.72;101885.52;2331447;76;51521;-77
2022/12/19 05:26:33;;;;;;;;;;;;;;;13.42;51.77;101884.08;2286896;76;52472;-78
2022/12/19 05:29:35;;;;;;;;;;;;;;;13.40;51.83;101884.68;2327985;76;51520;-78
2022/12/19 05:32:36;;;;;;;;;;;;;;;13.39;51.70;101885.66;2326657;76;50254;-78
2022/12/19 05:35:38;;;;;;;;;;;;;;;13.40;51.75;101892.66;2326550;76;50420;-78
2022/12/19 05:38:39;;;;;;;;;;;;;;;13.40;51.69;101890.48;2269476;76;51201;-77
2022/12/19 05:41:41;;;;;;;;;;;;;;;13.39;51.72;101872.36;2326543;76;50656;-77
2022/12/19 05:44:43;;;;;;;;;;;;;;;13.39;51.69;101871.52;2326620;76;50281;-77
2022/12/19 05:47:45;;;;;;;;;;;;;;;13.39;51.79;101881.67;2326410;76;50268;-77
2022/12/19 05:50:48;;;;;;;;;;;;;;;13.39;51.74;101875.52;2269953;76;51718;-77
2022/12/19 05:53:50;;;;;;;;;;;;;;;13.37;51.69;101874.28;2337933;75;51582;-77
2022/12/19 05:56:51;;;;;;;;;;;;;;;13.37;51.64;101864.98;2350473;75;51595;-78
2022/12/19 05:59:53;;;;;;;;;;;;;;;13.37;51.63;101858.83;2337421;74;50641;-77
2022/12/19 06:02:54;;;;;;;;;;;;;;;13.35;51.65;101840.81;2294925;76;52502;-76
2022/12/19 06:05:56;;;;;;;;;;;;;;;13.36;51.64;101853.13;2295032;76;51510;-77
2022/12/19 06:08:58;;;;;;;;;;;;;;;13.35;51.71;101852.77;2326273;75;51469;-77
2022/12/19 06:11:59;;;;;;;;;;;;;;;13.35;51.61;101850.12;2326615;76;51572;-77
2022/12/19 06:15:01;;;;;;;;;;;;;;;13.33;51.69;101850.22;2295129;76;51618;-77
2022/12/19 06:18:03;;;;;;;;;;;;;;;13.35;51.64;101848.30;2295183;76;51622;-77
2022/12/19 06:21:05;;;;;;;;;;;;;;;13.34;51.66;101835.14;2296022;76;50653;-78
2022/12/19 06:24:08;;;;;;;;;;;;;;;13.35;51.63;101835.50;2339026;75;50335;-79
2022/12/19 06:27:10;;;;;;;;;;;;;;;13.36;51.62;101825.22;2351709;75;51378;-79
2022/12/19 06:30:12;;;;;;;;;;;;;;;13.33;51.60;101808.19;2327308;76;50814;-79
2022/12/19 06:33:13;;;;;;;;;;;;;;;13.33;51.67;101813.50;2296286;76;50798;-79
2022/12/19 06:36:22;;;;;;;;;;;;;;;13.32;51.52;101812.66;2295962;76;51518;-79
2022/12/19 06:39:24;;;;;;;;;;;;;;;13.32;51.60;101815.80;2294969;76;51673;-79
2022/12/19 06:42:25;;;;;;;;;;;;;;;13.30;51.69;101813.25;2288979;77;51396;-77
2022/12/19 06:45:27;;;;;;;;;;;;;;;13.29;51.59;101804.93;2288961;77;50722;-77
2022/12/19 06:48:29;;;;;;;;;;;;;;;13.30;51.63;101801.30;2255738;76;52433;-79
2022/12/19 06:51:30;;;;;;;;;;;;;;;13.32;51.62;101813.15;2295676;76;52384;-78
2022/12/19 06:54:32;;;;;;;;;;;;;;;13.29;51.50;101803.11;2323771;76;50692;-77
2022/12/19 06:57:33;;;;;;;;;;;;;;;13.31;51.58;101799.47;2294689;75;51751;-79
2022/12/19 07:00:35;;;;;;;;;;;;;;;13.28;51.59;101809.41;2296153;76;50371;-78
2022/12/19 07:03:38;;;;;;;;;;;;;;;13.26;51.51;101813.98;2296497;76;50658;-78
2022/12/19 07:06:39;;;;;;;;;;;;;;;13.25;51.62;101822.03;2327784;76;50846;-78
2022/12/19 07:09:41;;;;;;;;;;;;;;;13.28;51.54;101840.43;2327209;75;50775;-77
2022/12/19 07:12:43;;;;;;;;;;;;;;;13.28;51.55;101835.98;2327270;76;50419;-77
2022/12/19 07:15:44;;;;;;;;;;;;;;;13.26;51.55;101828.61;2270486;76;51701;-77
2022/12/19 07:18:46;;;;;;;;;;;;;;;13.27;51.61;101818.33;2327150;75;51556;-78
2022/12/19 07:21:47;;;;;;;;;;;;;;;13.27;51.57;101807.70;2327311;76;50749;-77
2022/12/19 07:24:49;;;;;;;;;;;;;;;13.25;51.59;101814.91;2307552;76;50767;-79
2022/12/19 07:27:51;;;;;;;;;;;;;;;13.26;51.56;101815.31;2289338;74;52306;-79
2022/12/19 07:30:53;;;;;;;;;;;;;;;13.25;51.52;101803.43;2334428;76;50746;-78
2022/12/19 07:33:54;;;;;;;;;;;;;;;13.26;51.59;101808.67;2296275;76;51444;-78
2022/12/19 07:36:56;;;;;;;;;;;;;;;13.23;51.51;101806.23;2327699;76;51543;-79
2022/12/19 07:39:57;;;;;;;;;;;;;;;13.23;51.57;101812.00;2270971;76;49703;-79
2022/12/19 07:42:59;;;;;;;;;;;;;;;13.25;51.63;101812.73;2325980;75;50495;-78
2022/12/19 07:46:01;;;;;;;;;;;;;;;13.21;51.50;101816.13;2327735;75;51598;-76
2022/12/19 07:49:03;;;;;;;;;;;;;;;13.23;51.52;101810.22;2296162;76;49930;-78
2022/12/19 07:52:04;;;;;;;;;;;;;;;13.22;51.60;101811.16;2296346;76;50279;-78
2022/12/19 07:55:06;;;;;;;;;;;;;;;13.24;51.55;101819.03;2336889;75;51599;-77
2022/12/19 07:58:10;;;;;;;;;;;;;;;13.20;51.54;101806.44;2361801;74;50843;-78
2022/12/19 08:01:12;;;;;;;;;;;;;;;13.20;51.55;101797.14;2304162;76;50387;-77
2022/12/19 08:04:13;;;;;;;;;;;;;;;13.21;51.53;101799.34;2270714;76;51753;-78
2022/12/19 08:07:15;;;;;;;;;;;;;;;13.20;51.57;101811.75;2327356;76;51541;-78
2022/12/19 08:10:18;;;;;;;;;;;;;;;13.20;51.50;101805.11;2295885;75;51505;-77
2022/12/19 08:13:19;;;;;;;;;;;;;;;13.19;51.53;101803.44;2327597;76;51711;-78
2022/12/19 08:16:21;;;;;;;;;;;;;;;13.21;51.59;101790.88;2270533;76;51425;-77
2022/12/19 08:19:23;;;;;;;;;;;;;;;13.20;51.48;101798.47;2327475;76;51477;-78
2022/12/19 08:22:24;;;;;;;;;;;;;;;13.21;51.39;101788.71;2327645;76;51539;-78
2022/12/19 08:25:26;;;;;;;;;;;;;;;13.20;51.47;101781.19;2286856;76;50266;-77
2022/12/19 08:28:27;;;;;;;;;;;;;;;13.19;51.52;101770.70;2263789;75;49688;-78
2022/12/19 08:31:29;;;;;;;;;;;;;;;13.19;51.57;101772.87;2296049;76;50791;-78
2022/12/19 08:34:31;;;;;;;;;;;;;;;13.22;51.51;101769.97;2327780;76;50666;-78
2022/12/19 08:37:33;;;;;;;;;;;;;;;13.22;51.54;101777.94;2295895;76;50353;-78
2022/12/19 08:40:34;;;;;;;;;;;;;;;13.19;51.43;101779.52;2258453;76;51685;-78
2022/12/19 08:43:37;;;;;;;;;;;;;;;13.17;51.47;101785.42;2296048;76;50650;-78
2022/12/19 08:46:39;;;;;;;;;;;;;;;13.21;51.47;101779.41;2327679;76;50798;-78
2022/12/19 08:49:40;;;;;;;;;;;;;;;13.19;51.50;101776.86;2327428;75;50712;-78
2022/12/19 08:52:42;;;;;;;;;;;;;;;13.18;51.44;101764.55;2296243;76;52504;-78
2022/12/19 08:55:43;;;;;;;;;;;;;;;13.16;51.50;101762.98;2311112;76;50737;-78
2022/12/19 08:58:45;;;;;;;;;;;;;;;13.18;51.40;101753.92;2300130;76;51472;-78
2022/12/19 09:01:47;;;;;;;;;;;;;;;13.17;51.44;101749.55;2294835;76;51483;-77
2022/12/19 09:04:48;;;;;;;;;;;;;;;13.16;51.42;101738.57;2267713;76;52328;-77
2022/12/19 09:07:50;;;;;;;;;;;;;;;13.14;51.43;101723.22;2327104;76;51531;-77
2022/12/19 09:10:53;;;;;;;;;;;;;;;13.15;51.54;101726.23;2327787;76;50272;-77
2022/12/19 09:13:55;;;;;;;;;;;;;;;13.15;51.47;101726.23;2326737;75;50319;-78
2022/12/19 09:16:57;;;;;;;;;;;;;;;13.17;51.54;101725.63;2270537;76;52648;-77
2022/12/19 09:19:59;;;;;;;;;;;;;;;13.16;51.48;101712.48;2341442;75;50826;-78
2022/12/19 09:23:01;;;;;;;;;;;;;;;13.15;51.37;101710.28;2361481;75;50830;-77
2022/12/19 09:26:04;;;;;;;;;;;;;;;13.14;51.39;101702.45;2331299;75;50432;-77
2022/12/19 09:29:06;;;;;;;;;;;;;;;13.13;51.47;101695.43;2313711;75;51348;-78
2022/12/19 09:32:07;;;;;;;;;;;;;;;13.15;51.52;101692.17;2327501;76;51673;-79
2022/12/19 09:35:09;;;;;;;;;;;;;;;13.16;51.50;101700.04;2295737;76;51529;-77
2022/12/19 09:38:11;;;;;;;;;;;;;;;13.13;51.48;101699.41;2297983;75;50354;-77
2022/12/19 09:41:17;;;;;;;;;;;;;;;13.15;51.54;101689.03;2266054;77;52476;-78
2022/12/19 09:44:30;;;;;;;;;;;;;;;13.11;51.48;101671.66;2300988;76;50290;-78
2022/12/19 09:47:31;;;;;;;;;;;;;;;13.12;51.50;101676.48;2327316;75;50823;-77
2022/12/19 09:50:40;;;;;;;;;;;;;;;13.12;51.47;101672.00;2327553;76;51373;-79
2022/12/19 09:53:46;;;;;;;;;;;;;;;13.10;51.42;101668.65;2295535;76;51730;-77
2022/12/19 09:56:50;;;;;;;;;;;;;;;13.10;51.48;101660.67;2326985;76;50857;-79
2022/12/19 09:59:55;;;;;;;;;;;;;;;13.10;51.49;101658.48;2327761;76;50736;-78
2022/12/19 10:02:59;;;;;;;;;;;;;;;13.09;51.52;101658.97;2326638;76;51488;-78
2022/12/19 10:06:20;;;;;;;;;;;;;;;13.09;51.51;101644.36;2296238;76;51326;-78
2022/12/19 10:09:21;;;;;;;;;;;;;;;13.09;51.59;101641.70;2284648;76;50419;-78
2022/12/19 10:12:31;;;;;;;;;;;;;;;13.07;51.56;101632.54;2325840;76;50806;-80
2022/12/19 10:15:43;;;;;;;;;;;;;;;13.08;51.56;101634.70;2327783;76;50353;-79
2022/12/19 10:18:55;;;;;;;;;;;;;;;13.08;51.55;101628.06;2296029;76;50168;-79
2022/12/19 10:21:58;;;;;;;;;;;;;;;13.09;51.52;101629.73;2327662;76;50322;-78
2022/12/19 10:25:04;;;;;;;;;;;;;;;13.08;51.52;101632.05;2327759;76;50443;-79
2022/12/19 10:28:24;;;;;;;;;;;;;;;13.08;51.59;101620.09;2327701;75;51478;-79
2022/12/19 10:31:33;;;;;;;;;;;;;;;13.09;51.54;101601.84;2296360;76;49667;-78
2022/12/19 10:34:36;;;;;;;;;;;;;;;13.07;51.62;101606.42;2327664;76;50737;-79
2022/12/19 10:37:39;;;;;;;;;;;;;;;13.09;51.52;101604.50;2327447;75;50920;-78
2022/12/19 10:40:45;;;;;;;;;;;;;;;13.07;51.57;101596.67;2327489;76;50497;-79
2022/12/19 10:44:06;;;;;;;;;;;;;;;13.06;51.59;101584.83;2296253;76;51412;-79
2022/12/19 10:47:09;;;;;;;;;;;;;;;13.06;51.60;101583.50;2327596;75;50472;-78
2022/12/19 10:50:11;;;;;;;;;;;;;;;13.04;51.63;101580.11;2328049;76;51444;-79
2022/12/19 10:53:13;;;;;;;;;;;;;;;13.06;51.60;101570.21;2327714;76;50312;-78
2022/12/19 10:56:16;;;;;;;;;;;;;;;13.07;51.59;101562.59;2281680;75;52634;-78
2022/12/19 10:59:19;;;;;;;;;;;;;;;13.04;51.58;101553.55;2337895;74;51529;-79
2022/12/19 11:02:22;;;;;;;;;;;;;;;13.05;51.64;101559.23;2327532;76;50798;-78
2022/12/19 11:05:25;;;;;;;;;;;;;;;13.06;51.67;101551.13;2308772;76;50868;-79
2022/12/19 11:08:36;;;;;;;;;;;;;;;13.05;51.62;101541.97;2295832;76;49689;-78
2022/12/19 11:11:38;;;;;;;;;;;;;;;13.05;51.64;101540.64;2327619;76;51653;-79
2022/12/19 11:14:41;;;;;;;;;;;;;;;13.05;51.67;101541.97;2327628;76;50763;-79
2022/12/19 11:17:42;;;;;;;;;;;;;;;13.04;51.64;101533.62;2327537;76;50799;-79
2022/12/19 11:20:58;;;;;;;;;;;;;;;13.04;51.63;101524.32;2296071;76;51187;-79
2022/12/19 11:24:01;;;;;;;;;;;;;;;13.03;51.66;101527.47;2327294;76;50412;-80
2022/12/19 11:27:03;;;;;;;;;;;;;;;13.03;51.67;101517.33;2330097;74;50222;-79
2022/12/19 11:30:09;;;;;;;;;;;;;;;13.03;51.67;101506.21;2346232;76;50310;-79
2022/12/19 11:33:15;;;;;;;;;;;;;;;13.04;51.63;101503.91;2302061;76;52656;-78
2022/12/19 11:36:37;;;;;;;;;;;;;;;13.04;51.68;101499.08;2327407;76;50331;-78
2022/12/19 11:39:40;;;;;;;;;;;;;;;13.01;51.70;101504.16;2327628;76;50724;-78
2022/12/19 11:42:56;;;;;;;;;;;;;;;13.02;51.74;101491.72;2327762;76;50911;-78
2022/12/19 11:45:59;;;;;;;;;;;;;;;13.01;51.67;101495.35;2296219;76;51304;-78
2022/12/19 11:49:19;;;;;;;;;;;;;;;13.02;51.66;101490.38;2327006;75;50723;-78
2022/12/19 11:52:34;;;;;;;;;;;;;;;13.00;51.69;101492.35;2327728;76;51491;-78
2022/12/19 11:55:41;;;;;;;;;;;;;;;13.00;51.76;101485.22;2301397;75;50707;-79
2022/12/19 11:58:44;;;;;;;;;;;;;;;13.01;51.67;101480.73;2266427;77;50936;-78
2022/12/19 12:01:48;;;;;;;;;;;;;;;13.02;51.71;101477.10;2294457;76;50720;-77
2022/12/19 12:05:08;;;;;;;;;;;;;;;12.98;51.73;101475.69;2325908;76;50041;-77
2022/12/19 12:08:14;;;;;;;;;;;;;;;12.99;51.76;101478.20;2326483;76;51606;-77
2022/12/19 12:11:20;;;;;;;;;;;;;;;12.96;51.71;101462.52;2295186;76;52398;-77
2022/12/19 12:14:27;;;;;;;;;;;;;;;12.97;51.76;101467.34;2326725;75;50768;-77
2022/12/19 12:17:30;;;;;;;;;;;;;;;12.97;51.72;101464.69;2326501;76;50664;-77
2022/12/19 12:20:50;;;;;;;;;;;;;;;12.96;51.71;101457.70;2326917;76;50367;-77
2022/12/19 12:23:56;;;;;;;;;;;;;;;12.96;51.68;101458.53;2292687;76;49687;-77
2022/12/19 12:26:59;;;;;;;;;;;;;;;12.96;51.70;101453.70;2324518;75;51510;-77
2022/12/19 12:30:11;;;;;;;;;;;;;;;12.95;51.71;101449.38;2360622;74;51645;-77
2022/12/19 12:33:17;;;;;;;;;;;;;;;12.95;51.79;101454.20;2360965;75;51525;-77
2022/12/19 12:36:23;;;;;;;;;;;;;;;12.94;51.74;101446.34;2324859;75;51336;-78
2022/12/19 12:39:35;;;;;;;;;;;;;;;12.96;51.77;101439.09;2325774;75;50758;-77
2022/12/19 12:42:41;;;;;;;;;;;;;;;12.94;51.73;101435.23;2326270;75;50438;-77
2022/12/19 12:45:48;;;;;;;;;;;;;;;12.95;51.76;101436.09;2295127;76;51319;-77
2022/12/19 12:49:00;;;;;;;;;;;;;;;12.92;51.77;101431.88;2325247;75;22369;-77
2022/12/19 12:52:02;;;;;;;;;;;;;;;12.94;51.74;101433.06;2284489;76;50506;-77
2022/12/19 12:55:04;;;;;;;;;;;;;;;12.93;51.76;101424.75;2324936;76;51544;-78
2022/12/19 12:58:06;;;;;;;;;;;;;;;12.96;51.75;101424.49;2317366;75;50851;-78
2022/12/19 13:01:12;;;;;;;;;;;;;;;12.93;51.74;101416.29;2295142;76;49901;-78
2022/12/19 13:04:15;;;;;;;;;;;;;;;12.94;51.79;101415.80;2308691;76;50850;-78
2022/12/19 13:07:21;;;;;;;;;;;;;;;12.92;51.73;101421.26;2326215;76;50734;-78
2022/12/19 13:10:24;;;;;;;;;;;;;;;12.92;51.78;101410.63;2325641;76;50684;-77
2022/12/19 13:13:44;;;;;;;;;;;;;;;12.93;51.77;101414.13;2295015;76;51702;-78
2022/12/19 13:16:47;;;;;;;;;;;;;;;12.91;51.82;101410.75;2326282;76;51460;-78
2022/12/19 13:19:52;;;;;;;;;;;;;;;12.89;51.84;101406.04;2326410;76;50830;-78
2022/12/19 13:22:59;;;;;;;;;;;;;;;12.90;51.83;101399.28;2326652;76;51550;-78
2022/12/19 13:26:00;;;;;;;;;;;;;;;12.90;51.82;101391.81;2303845;75;51007;-78
2022/12/19 13:29:03;;;;;;;;;;;;;;;12.90;51.87;101394.47;2348876;74;51610;-78
2022/12/19 13:32:09;;;;;;;;;;;;;;;12.89;51.87;101388.78;2322779;76;51566;-78
2022/12/19 13:35:12;;;;;;;;;;;;;;;12.88;51.86;101377.31;2325493;76;51501;-78
2022/12/19 13:38:16;;;;;;;;;;;;;;;12.86;51.88;101380.09;2294785;76;50158;-78
2022/12/19 13:44:47;;;;;;;;;;;;;;;12.88;51.92;101372.49;2326793;75;22299;-78
2022/12/19 13:47:48;;;;;;;;;;;;;;;12.86;51.90;101376.10;2326275;76;50399;-78
2022/12/19 13:50:50;;;;;;;;;;;;;;;12.86;51.88;101385.40;2294848;76;50135;-78
2022/12/19 13:53:52;;;;;;;;;;;;;;;12.86;51.88;101378.76;2326671;76;51275;-78
2022/12/19 13:56:54;;;;;;;;;;;;;;;12.83;51.91;101377.69;2331210;76;51497;-78
2022/12/19 14:00:03;;;;;;;;;;;;;;;12.85;51.91;101377.09;2323999;76;51542;-78
2022/12/19 14:03:05;;;;;;;;;;;;;;;12.84;51.89;101376.73;2251418;77;52698;-78
2022/12/19 14:06:20;;;;;;;;;;;;;;;12.85;51.91;101374.43;2287442;77;51453;-78
2022/12/19 14:09:32;;;;;;;;;;;;;;;12.88;51.89;101371.17;2287610;76;51552;-78
2022/12/19 14:15:55;;;;;;;;;;;;;;;12.83;51.94;101369.72;2326747;76;22512;-78
2022/12/19 14:18:59;;;;;;;;;;;;;;;12.83;51.93;101363.09;2326184;75;50677;-78
2022/12/19 14:22:11;;;;;;;;;;;;;;;12.82;51.92;101365.39;2295677;76;22846;-78
2022/12/19 14:25:12;;;;;;;;;;;;;;;12.81;51.98;101362.36;2329971;76;51684;-78
2022/12/19 14:28:18;;;;;;;;;;;;;;;12.81;51.99;101361.52;2284244;76;52496;-78
2022/12/19 14:31:20;;;;;;;;;;;;;;;12.80;52.03;101366.00;2345451;76;51666;-78
2022/12/19 14:34:26;;;;;;;;;;;;;;;12.80;52.00;101357.20;2338010;76;51740;-78
2022/12/19 14:37:31;;;;;;;;;;;;;;;12.80;52.04;101359.36;2326298;76;51677;-78
2022/12/19 14:40:33;;;;;;;;;;;;;;;12.77;52.03;101360.95;2269818;76;52458;-78
2022/12/19 14:43:46;;;;;;;;;;;;;;;12.78;52.04;101361.78;2326549;75;50809;-78
2022/12/19 14:46:44;;;;;;;;;;;;;;;12.78;52.03;101361.30;2325489;75;22292;-77
2022/12/19 14:49:45;;;;;;;;;;;;;;;12.77;52.08;101359.63;2256361;77;50131;-78
2022/12/19 14:52:47;;;;;;;;;;;;;;;12.78;52.02;101358.64;2270046;76;52467;-78
2022/12/19 14:55:50;;;;;;;;;;;;;;;12.77;52.04;101356.13;2323484;75;50319;-78
2022/12/19 14:58:55;;;;;;;;;;;;;;;12.76;52.07;101356.59;2349834;74;50840;-78
2022/12/19 15:02:08;;;;;;;;;;;;;;;12.75;52.10;101359.39;2326473;76;50328;-78
2022/12/19 15:05:12;;;;;;;;;;;;;;;12.75;52.10;101348.28;2295077;76;49711;-78
2022/12/19 15:08:15;;;;;;;;;;;;;;;12.76;52.10;101345.13;2287270;76;50505;-78
2022/12/19 15:14:43;;;;;;;;;;;;;;;12.76;52.05;101335.84;2261945;77;22401;-78
2022/12/19 15:17:45;;;;;;;;;;;;;;;12.78;52.01;101337.39;2266362;76;52472;-78
2022/12/19 15:20:47;;;;;;;;;;;;;;;12.76;52.04;101323.89;2287795;77;50464;-77
2022/12/19 15:23:48;;;;;;;;;;;;;;;12.74;52.08;101328.02;2289815;75;50336;-78
2022/12/19 15:26:51;;;;;;;;;;;;;;;12.73;52.12;101327.64;2341803;74;50305;-78
2022/12/19 15:29:53;;;;;;;;;;;;;;;12.72;52.17;101329.11;2294985;76;51127;-78
2022/12/19 15:32:54;;;;;;;;;;;;;;;12.73;52.18;101339.59;2326643;76;51551;-78
2022/12/19 15:35:56;;;;;;;;;;;;;;;12.71;52.20;101337.54;2295095;76;50076;-78
2022/12/19 15:38:57;;;;;;;;;;;;;;;12.72;52.19;101339.25;2294791;76;51533;-78
2022/12/19 15:41:59;;;;;;;;;;;;;;;12.72;52.18;101339.73;2294966;76;51069;-78
2022/12/19 15:45:01;;;;;;;;;;;;;;;12.71;52.19;101332.23;2326496;76;50326;-78
2022/12/19 15:48:06;;;;;;;;;;;;;;;12.71;52.23;101327.41;2326375;75;50700;-78
2022/12/19 15:51:09;;;;;;;;;;;;;;;12.70;52.22;101331.89;2326541;76;51606;-77
2022/12/19 15:54:10;;;;;;;;;;;;;;;12.71;52.19;101328.25;2328524;76;50803;-77
2022/12/19 15:57:19;;;;;;;;;;;;;;;12.68;52.27;101325.85;2332431;74;50634;-77